AMS weather

Amsterdam Airport Schiphol
Amsterdam, Noord-Holland, Netherlands

Public forecast

Using degrees Celsius for public forecast. Weather courtesy of forecast.io.

METAR (pilot weather report)

Retrieved 2018/04/25 04:25 UTC (0 seconds ago):

EHAM 250425Z 26021KT 230V290 9999 FEW005 BKN007 10/09 Q1006 TEMPO SCT008

TAF (pilot weather forecast)

Retrieved 2018/04/25 00:00 UTC (4 hours ago):

TAF EHAM 242303Z 2500/2606 23021G32KT 7000 -RADZ BKN012 TEMPO 2500/2504 3500 DZRA RA BKN007 BECMG 2503/2506 29016KT 9999 NSW PROB30 2504/2507 BKN007 BECMG 2506/2509 SCT020 BECMG 2514/2517 25014KT PROB40 TEMPO 2516/2602 6000 SHRA SCT020CB